Mitrope — 9HBH6 — position and weather

sailwx.info

Track history (hours):
 
Tides and Currents Weather Stations Pressure Air Temp Water Temp Dewpoint Dewpoint Depression Visibility Wind Speed Wind Dir Waves Ship Positions

Mitrope

Last reported at 2015-Feb-18 15:07 UTC. Time now 2015-Mar-05 08:08 UTC.
Position N 34°10' W 076°51'.
Warning: this ship's position is 14 days out of date.

Length 149 m; draft 6.6 m.

Type: Ship. MMSI: 248360000.

Date/timePositionNaut miles runAvg speedWind from/ knotsBaromVisibWave heightAir tempDewpointWater temp
2015-Feb-18 15:07N 34°10' W 076°51'712.8
2015-Feb-18 14:32N 34°17' W 076°48'1312.9
2015-Feb-18 13:33N 34°29' W 076°43'1212.1
2015-Feb-18 12:33N 34°41' W 076°40'2 2.4
2015-Feb-18 11:33N 34°43' W 076°41'0 0.0
2015-Feb-18 10:33N 34°43' W 076°41'0 0.0
2015-Feb-18 09:33N 34°43' W 076°41'0 0.0
2015-Feb-18 08:33N 34°43' W 076°41'0 0.0
2015-Feb-18 07:33N 34°43' W 076°41'0 0.0
2015-Feb-18 06:33N 34°43' W 076°41'0 0.0
2015-Feb-18 05:33N 34°43' W 076°41'0 0.0
2015-Feb-18 04:33N 34°43' W 076°41'0 0.0
2015-Feb-18 03:33N 34°43' W 076°41'0 0.0
2015-Feb-18 02:33N 34°43' W 076°41'0 0.0
2015-Feb-18 01:33N 34°43' W 076°41'0 0.0
2015-Feb-18 00:33N 34°43' W 076°41'0 0.0
2015-Feb-17 23:33N 34°43' W 076°41'0 0.0
2015-Feb-17 22:33N 34°43' W 076°41'0 0.0
2015-Feb-17 21:33N 34°43' W 076°41'0 0.0
2015-Feb-17 20:33N 34°43' W 076°41'0 0.0
2015-Feb-17 19:33N 34°43' W 076°41'0 0.0
2015-Feb-17 17:33N 34°43' W 076°41'0 0.0
2015-Feb-17 16:33N 34°43' W 076°41'0 0.0
2015-Feb-17 15:33N 34°43' W 076°41'0 0.0
2015-Feb-17 14:33N 34°43' W 076°41'0 0.0
2015-Feb-17 13:33N 34°43' W 076°41'0 0.0
2015-Feb-17 12:33N 34°43' W 076°41'5 4.8
2015-Feb-17 11:33N 34°38' W 076°41'8 8.4
2015-Feb-17 10:33N 34°30' W 076°43'10 9.8
2015-Feb-17 09:30N 34°20' W 076°47'50211.2
2015-Feb-15 12:32N 26°18' W 079°28'1212.7
2015-Feb-15 11:33N 26°05' W 079°30'1313.2
2015-Feb-15 10:33N 25°52' W 079°33'  
Track history (hours):
 
Tides and Currents Weather Stations Pressure Air Temp Water Temp Dewpoint Dewpoint Depression Visibility Wind Speed Wind Dir Waves Ship Positions

Mitrope

Last reported at 2015-Feb-18 15:07 UTC. Time now 2015-Mar-05 08:08 UTC.
Position N 34°10' W 076°51'.
Warning: this ship's position is 14 days out of date.

Length 149 m; draft 6.6 m.

Type: Ship. MMSI: 248360000.

Date/timePositionNaut miles runAvg speedWind from/ knotsBaromVisibWave heightAir tempDewpointWater temp
2015-Feb-18 15:07N 34°10' W 076°51'712.8
2015-Feb-18 14:32N 34°17' W 076°48'1312.9
2015-Feb-18 13:33N 34°29' W 076°43'1212.1
2015-Feb-18 12:33N 34°41' W 076°40'2 2.4
2015-Feb-18 11:33N 34°43' W 076°41'0 0.0
2015-Feb-18 10:33N 34°43' W 076°41'0 0.0
2015-Feb-18 09:33N 34°43' W 076°41'0 0.0
2015-Feb-18 08:33N 34°43' W 076°41'0 0.0
2015-Feb-18 07:33N 34°43' W 076°41'0 0.0
2015-Feb-18 06:33N 34°43' W 076°41'0 0.0
2015-Feb-18 05:33N 34°43' W 076°41'0 0.0
2015-Feb-18 04:33N 34°43' W 076°41'0 0.0
2015-Feb-18 03:33N 34°43' W 076°41'0 0.0
2015-Feb-18 02:33N 34°43' W 076°41'0 0.0
2015-Feb-18 01:33N 34°43' W 076°41'0 0.0
2015-Feb-18 00:33N 34°43' W 076°41'0 0.0
2015-Feb-17 23:33N 34°43' W 076°41'0 0.0
2015-Feb-17 22:33N 34°43' W 076°41'0 0.0
2015-Feb-17 21:33N 34°43' W 076°41'0 0.0
2015-Feb-17 20:33N 34°43' W 076°41'0 0.0
2015-Feb-17 19:33N 34°43' W 076°41'0 0.0
2015-Feb-17 17:33N 34°43' W 076°41'0 0.0
2015-Feb-17 16:33N 34°43' W 076°41'0 0.0
2015-Feb-17 15:33N 34°43' W 076°41'0 0.0
2015-Feb-17 14:33N 34°43' W 076°41'0 0.0
2015-Feb-17 13:33N 34°43' W 076°41'0 0.0
2015-Feb-17 12:33N 34°43' W 076°41'5 4.8
2015-Feb-17 11:33N 34°38' W 076°41'8 8.4
2015-Feb-17 10:33N 34°30' W 076°43'10 9.8
2015-Feb-17 09:30N 34°20' W 076°47'50211.2
2015-Feb-15 12:32N 26°18' W 079°28'1212.7
2015-Feb-15 11:33N 26°05' W 079°30'1313.2
2015-Feb-15 10:33N 25°52' W 079°33'  

Dump ship's entire track history